Time;durP1;ratioP1;P1;durP2;ratioP2;P2;SDS_P1;SDS_P2;PMS_P1;PMS_P2;Temp;Humidity;BMP_temperature;BMP_pressure;BME280_temperature;BME280_humidity;BME280_pressure;Samples;Min_cycle;Max_cycle;Signal;HPM_P1;HPM_P2
2022/04/11 00:00:33;;;;;;;3.17;1.10;;;19.80;46.10;;;;;;4525743;31;20185;-69
2022/04/11 00:02:59;;;;;;;2.42;0.82;;;19.80;46.20;;;;;;4524826;31;20057;-68
2022/04/11 00:05:25;;;;;;;4.22;1.05;;;19.80;46.20;;;;;;4524752;31;20088;-68
2022/04/11 00:07:50;;;;;;;3.60;1.02;;;19.80;46.20;;;;;;4524923;31;20096;-70
2022/04/11 00:10:17;;;;;;;3.53;1.02;;;19.80;46.30;;;;;;4514916;31;20217;-69
2022/04/11 00:12:43;;;;;;;2.30;0.70;;;19.80;46.20;;;;;;4517512;31;20436;-69
2022/04/11 00:15:09;;;;;;;2.97;1.10;;;19.80;46.20;;;;;;4532461;31;20068;-68
2022/04/11 00:17:36;;;;;;;2.53;0.90;;;19.70;46.10;;;;;;4531682;31;20491;-68
2022/04/11 00:20:04;;;;;;;3.42;1.02;;;19.70;46.10;;;;;;4519105;31;20164;-69
2022/04/11 00:22:32;;;;;;;2.53;1.00;;;19.70;46.10;;;;;;4539569;31;20123;-69
2022/04/11 00:24:58;;;;;;;3.03;1.00;;;19.70;46.10;;;;;;4540604;31;20090;-68
2022/04/11 00:27:24;;;;;;;2.42;0.55;;;19.70;46.10;;;;;;4526701;31;20072;-69
2022/04/11 00:29:50;;;;;;;1.65;0.80;;;19.70;46.10;;;;;;4526801;31;20223;-69
2022/04/11 00:32:15;;;;;;;2.42;0.88;;;19.70;46.10;;;;;;4541225;31;20389;-69
2022/04/11 00:34:41;;;;;;;2.47;0.85;;;19.70;46.00;;;;;;4541146;31;20412;-69
2022/04/11 00:37:07;;;;;;;2.38;0.57;;;19.60;46.00;;;;;;4540800;31;20064;-69
2022/04/11 00:39:33;;;;;;;3.47;0.80;;;19.60;46.00;;;;;;4540931;31;20615;-69
2022/04/11 00:42:10;;;;;;;2.67;0.70;;;19.60;46.00;;;;;;4540969;31;20071;-69
2022/04/11 00:44:36;;;;;;;2.17;0.70;;;19.60;45.90;;;;;;4540462;31;20168;-68
2022/04/11 00:47:02;;;;;;;2.83;0.70;;;19.60;46.00;;;;;;4540890;31;20192;-69
2022/04/11 00:49:28;;;;;;;3.40;0.65;;;19.50;45.90;;;;;;4540917;31;20086;-68
2022/04/11 00:51:54;;;;;;;4.63;0.80;;;19.50;45.90;;;;;;4540946;31;20068;-69
2022/04/11 00:54:20;;;;;;;3.20;1.10;;;19.50;45.90;;;;;;4526383;31;20164;-68
2022/04/11 00:56:47;;;;;;;3.65;0.90;;;19.50;45.90;;;;;;4540665;31;20086;-68
2022/04/11 00:59:15;;;;;;;2.35;0.98;;;19.50;45.90;;;;;;4539994;31;20225;-69
2022/04/11 01:01:41;;;;;;;2.25;0.73;;;19.40;45.90;;;;;;4541028;31;20184;-69
2022/04/11 01:04:23;;;;;;;4.05;0.90;;;19.50;45.90;;;;;;4540437;31;20080;-69
2022/04/11 01:06:55;;;;;;;1.63;0.70;;;19.50;45.90;;;;;;4525047;31;20284;-68
2022/04/11 01:09:24;;;;;;;2.13;0.85;;;19.40;45.80;;;;;;4540426;31;20493;-68
2022/04/11 01:11:52;;;;;;;1.10;0.60;;;19.40;45.80;;;;;;4540807;31;20072;-69
2022/04/11 01:14:21;;;;;;;2.92;0.80;;;19.40;45.80;;;;;;4540670;31;20218;-68
2022/04/11 01:16:51;;;;;;;2.55;0.73;;;19.40;45.80;;;;;;4540673;31;20160;-68
2022/04/11 01:19:18;;;;;;;2.17;0.90;;;19.40;45.80;;;;;;4540169;31;20209;-68
2022/04/11 01:21:45;;;;;;;3.35;0.88;;;19.40;46.70;;;;;;4539794;31;20128;-69
2022/04/11 01:24:11;;;;;;;1.67;0.77;;;19.40;45.80;;;;;;4540028;31;20115;-68
2022/04/11 01:26:37;;;;;;;2.25;0.85;;;19.30;45.70;;;;;;4539271;31;20083;-69
2022/04/11 01:29:06;;;;;;;1.92;0.70;;;19.40;45.80;;;;;;4540518;31;20120;-68
2022/04/11 01:31:32;;;;;;;1.10;0.50;;;19.30;45.70;;;;;;4539818;31;20120;-68
2022/04/11 01:33:58;;;;;;;1.63;0.82;;;19.30;45.70;;;;;;4539795;31;20723;-69
2022/04/11 01:36:28;;;;;;;1.65;0.50;;;19.30;45.70;;;;;;4526073;31;20131;-68
2022/04/11 01:38:54;;;;;;;1.98;0.70;;;19.30;45.80;;;;;;4540077;31;20612;-68
2022/04/11 01:41:20;;;;;;;2.30;0.50;;;19.30;45.80;;;;;;4525711;31;20176;-69
2022/04/11 01:43:48;;;;;;;2.28;0.60;;;19.30;45.80;;;;;;4525381;31;20192;-68
2022/04/11 01:46:15;;;;;;;1.45;0.50;;;19.20;45.70;;;;;;4540357;31;20084;-69
2022/04/11 01:48:41;;;;;;;1.50;0.80;;;19.20;45.70;;;;;;4525634;31;20079;-68
2022/04/11 01:51:06;;;;;;;1.77;0.70;;;19.20;45.70;;;;;;4539337;31;20115;-68
2022/04/11 01:53:32;;;;;;;1.48;0.60;;;19.20;45.70;;;;;;4539801;31;20189;-69
2022/04/11 01:55:58;;;;;;;2.78;0.88;;;19.20;46.60;;;;;;4540211;31;20060;-68
2022/04/11 01:58:24;;;;;;;1.30;0.60;;;19.20;45.70;;;;;;4539276;31;20404;-68
2022/04/11 02:00:50;;;;;;;1.05;0.50;;;19.20;45.70;;;;;;4539158;31;20099;-69
2022/04/11 02:03:16;;;;;;;1.80;0.65;;;19.20;45.70;;;;;;4539898;31;20146;-69
2022/04/11 02:05:43;;;;;;;1.38;0.70;;;19.20;45.70;;;;;;4524639;31;20072;-68
2022/04/11 02:08:13;;;;;;;1.40;0.57;;;19.20;45.80;;;;;;4538602;31;20216;-68
2022/04/11 02:10:39;;;;;;;1.30;0.60;;;19.20;45.80;;;;;;4524821;31;20088;-69
2022/04/11 02:13:07;;;;;;;2.40;0.55;;;19.10;45.70;;;;;;4539498;31;20088;-68
2022/04/11 02:15:33;;;;;;;1.45;0.73;;;19.10;45.70;;;;;;4540039;31;20417;-68
2022/04/11 02:17:59;;;;;;;2.10;0.70;;;19.10;45.80;;;;;;4524928;31;20081;-68
2022/04/11 02:20:25;;;;;;;2.22;0.90;;;19.10;45.80;;;;;;4539051;31;20092;-68
2022/04/11 02:22:55;;;;;;;1.95;0.50;;;19.10;45.80;;;;;;4539521;31;20060;-69
2022/04/11 02:25:29;;;;;;;1.67;0.60;;;19.10;45.80;;;;;;4539401;31;20385;-68
2022/04/11 02:27:55;;;;;;;;;;;19.10;45.80;;;;;;4538955;31;20115;-69
2022/04/11 02:30:24;;;;;;;2.25;0.60;;;19.00;45.70;;;;;;4537973;31;20080;-69
2022/04/11 02:32:52;;;;;;;1.88;0.70;;;19.00;45.80;;;;;;4539475;31;20080;-69
2022/04/11 02:35:21;;;;;;;1.38;0.60;;;19.00;45.80;;;;;;4525496;31;20514;-68
2022/04/11 02:37:47;;;;;;;1.38;0.55;;;19.00;45.80;;;;;;4523794;31;20168;-68
2022/04/11 02:40:13;;;;;;;1.33;0.55;;;19.00;45.80;;;;;;4539172;31;20104;-69
2022/04/11 02:42:43;;;;;;;1.83;0.50;;;19.00;45.80;;;;;;4539522;31;20487;-68
2022/04/11 02:45:10;;;;;;;1.35;0.60;;;19.00;45.80;;;;;;4538506;31;20190;-68
2022/04/11 02:47:37;;;;;;;2.05;0.60;;;18.90;45.70;;;;;;4524118;31;20236;-69
2022/04/11 02:50:03;;;;;;;1.83;0.50;;;18.90;45.70;;;;;;4539252;31;20103;-69
2022/04/11 02:52:29;;;;;;;1.75;0.60;;;18.90;45.70;;;;;;4537039;31;20076;-68
2022/04/11 02:54:56;;;;;;;2.28;0.80;;;18.90;45.80;;;;;;4494674;31;20165;-69
2022/04/11 02:57:22;;;;;;;2.22;0.63;;;18.90;45.70;;;;;;4505816;31;20544;-69
2022/04/11 02:59:49;;;;;;;1.00;0.60;;;18.90;45.70;;;;;;4506297;31;20076;-68
2022/04/11 03:02:15;;;;;;;1.67;0.55;;;18.90;45.70;;;;;;4506846;31;20215;-69
2022/04/11 03:04:41;;;;;;;1.13;0.50;;;18.90;45.70;;;;;;4507417;31;20069;-68
2022/04/11 03:07:08;;;;;;;1.35;0.70;;;18.80;45.60;;;;;;4507337;31;20084;-68
2022/04/11 03:09:34;;;;;;;1.00;0.50;;;18.80;45.60;;;;;;4507359;31;20128;-68
2022/04/11 03:12:00;;;;;;;1.83;0.80;;;18.80;45.60;;;;;;4505257;31;20060;-68
2022/04/11 03:14:27;;;;;;;1.35;0.60;;;18.80;45.60;;;;;;4506666;31;20096;-68
2022/04/11 03:16:53;;;;;;;1.92;0.60;;;18.80;45.60;;;;;;4507057;31;20626;-69
2022/04/11 03:19:20;;;;;;;0.90;0.50;;;18.80;45.60;;;;;;4505471;31;20093;-68
2022/04/11 03:21:45;;;;;;;1.20;0.60;;;18.80;45.60;;;;;;4507578;31;20498;-68
2022/04/11 03:24:12;;;;;;;1.35;0.52;;;18.80;45.60;;;;;;4495615;31;20107;-68
2022/04/11 03:26:38;;;;;;;1.50;0.65;;;18.70;45.60;;;;;;4510152;31;20087;-68
2022/04/11 03:29:03;;;;;;;1.00;0.50;;;18.80;45.60;;;;;;4509233;31;20557;-68
2022/04/11 03:31:30;;;;;;;2.45;0.70;;;18.70;45.60;;;;;;4509173;31;20174;-69
2022/04/11 03:33:56;;;;;;;1.10;0.60;;;18.70;45.60;;;;;;4508588;31;20522;-69
2022/04/11 03:36:22;;;;;;;1.90;0.70;;;18.70;45.60;;;;;;4508080;31;20632;-68
2022/04/11 03:38:49;;;;;;;1.15;0.55;;;18.70;45.60;;;;;;4509818;31;20091;-68
2022/04/11 03:41:14;;;;;;;1.45;0.60;;;18.70;45.60;;;;;;4509834;31;20144;-69
2022/04/11 03:43:41;;;;;;;1.17;0.70;;;18.70;45.60;;;;;;4509361;31;20268;-69
2022/04/11 03:46:06;;;;;;;0.55;0.30;;;18.70;45.60;;;;;;4508938;31;20234;-68
2022/04/11 03:48:32;;;;;;;0.90;0.60;;;18.70;45.60;;;;;;4509817;31;20250;-68
2022/04/11 03:50:58;;;;;;;2.05;0.70;;;18.70;45.60;;;;;;4508558;31;20081;-68
2022/04/11 03:53:24;;;;;;;1.15;0.50;;;18.60;45.60;;;;;;4509507;31;20178;-68
2022/04/11 03:55:50;;;;;;;0.90;0.60;;;18.60;45.60;;;;;;4510996;31;20150;-69
2022/04/11 03:58:16;;;;;;;1.08;0.52;;;18.60;45.60;;;;;;4525440;31;20069;-68
2022/04/11 04:00:41;;;;;;;0.82;0.40;;;18.60;45.60;;;;;;4524833;31;20525;-68
2022/04/11 04:03:12;;;;;;;1.38;0.60;;;18.60;45.60;;;;;;4525114;31;20057;-68
2022/04/11 04:05:46;;;;;;;1.05;0.60;;;18.60;45.60;;;;;;4525450;31;20276;-68
2022/04/11 04:08:13;;;;;;;1.42;0.60;;;18.60;45.60;;;;;;4525576;31;20286;-68
2022/04/11 04:10:43;;;;;;;0.50;0.43;;;18.60;45.70;;;;;;4525490;31;20072;-68
2022/04/11 04:13:08;;;;;;;2.10;0.80;;;18.60;45.70;;;;;;4524647;31;20489;-68
2022/04/11 04:15:36;;;;;;;0.93;0.55;;;18.50;45.60;;;;;;4525293;31;20326;-69
2022/04/11 04:18:02;;;;;;;1.08;0.57;;;18.50;45.60;;;;;;4525245;31;20119;-68
2022/04/11 04:20:28;;;;;;;1.77;0.60;;;18.50;45.70;;;;;;4524935;31;20580;-68
2022/04/11 04:22:54;;;;;;;1.92;0.60;;;18.50;45.70;;;;;;4524863;31;20188;-68
2022/04/11 04:25:20;;;;;;;1.30;0.70;;;18.50;45.70;;;;;;4525233;31;20513;-68
2022/04/11 04:27:46;;;;;;;2.17;0.50;;;18.50;45.70;;;;;;4524541;31;20072;-68
2022/04/11 04:30:12;;;;;;;1.25;0.73;;;18.50;45.70;;;;;;4524766;31;20103;-68
2022/04/11 04:32:39;;;;;;;1.23;0.60;;;18.50;45.70;;;;;;4524589;31;20107;-68
2022/04/11 04:35:06;;;;;;;0.88;0.57;;;18.50;45.70;;;;;;4524434;31;20433;-68
2022/04/11 04:37:32;;;;;;;1.00;0.80;;;18.50;45.70;;;;;;4524490;31;20080;-68
2022/04/11 04:39:58;;;;;;;1.08;0.63;;;18.50;45.70;;;;;;4524977;31;20234;-68
2022/04/11 04:42:27;;;;;;;0.88;0.50;;;18.40;45.60;;;;;;4524738;31;20120;-68
2022/04/11 04:44:54;;;;;;;0.93;0.60;;;18.40;45.70;;;;;;4510028;31;20112;-69
2022/04/11 04:47:19;;;;;;;0.90;0.73;;;18.40;45.60;;;;;;4525230;31;20520;-68
2022/04/11 04:49:46;;;;;;;1.10;0.70;;;18.40;45.70;;;;;;4524157;31;20076;-68
2022/04/11 04:52:12;;;;;;;1.10;0.60;;;18.40;45.70;;;;;;4510016;31;20088;-68
2022/04/11 04:54:38;;;;;;;0.88;0.65;;;18.40;45.70;;;;;;4524952;31;20125;-68
2022/04/11 04:57:05;;;;;;;2.03;0.65;;;18.40;45.70;;;;;;4524807;31;20109;-68
2022/04/11 04:59:31;;;;;;;0.88;0.50;;;18.40;45.80;;;;;;4510050;31;20139;-68
2022/04/11 05:01:57;;;;;;;0.70;0.55;;;18.40;45.80;;;;;;4524904;31;20210;-68
2022/04/11 05:04:23;;;;;;;1.13;0.50;;;18.30;45.70;;;;;;4524010;31;20081;-68
2022/04/11 05:06:49;;;;;;;1.85;0.75;;;18.30;45.70;;;;;;4524392;31;20127;-68
2022/04/11 05:09:16;;;;;;;1.63;0.50;;;18.40;45.80;;;;;;4524713;31;20072;-68
2022/04/11 05:11:41;;;;;;;0.82;0.52;;;18.30;45.70;;;;;;4524735;31;20185;-68
2022/04/11 05:14:07;;;;;;;0.88;0.60;;;18.30;45.70;;;;;;4524545;31;20288;-68
2022/04/11 05:16:34;;;;;;;0.85;0.50;;;18.30;46.70;;;;;;4524633;31;20647;-69
2022/04/11 05:19:00;;;;;;;0.85;0.55;;;18.30;45.70;;;;;;4523799;31;20100;-68
2022/04/11 05:21:26;;;;;;;1.58;0.70;;;18.30;45.70;;;;;;4524343;31;20088;-68
2022/04/11 05:23:52;;;;;;;0.98;0.68;;;18.30;45.70;;;;;;4509407;31;20225;-68
2022/04/11 05:26:18;;;;;;;1.08;0.63;;;18.30;45.80;;;;;;4524068;31;20068;-68
2022/04/11 05:28:45;;;;;;;1.67;0.70;;;18.30;45.80;;;;;;4524449;31;20136;-68
2022/04/11 05:31:11;;;;;;;1.85;0.68;;;18.20;45.70;;;;;;4524360;31;20068;-68
2022/04/11 05:33:37;;;;;;;1.08;0.60;;;18.20;45.80;;;;;;4510319;31;20073;-68
2022/04/11 05:36:03;;;;;;;1.30;0.60;;;18.20;45.80;;;;;;4523866;31;20065;-68
2022/04/11 05:38:29;;;;;;;0.90;0.50;;;18.20;45.80;;;;;;4509528;31;20173;-68
2022/04/11 05:40:56;;;;;;;1.98;0.80;;;18.20;45.80;;;;;;4495770;31;20100;-69
2022/04/11 05:43:22;;;;;;;0.68;0.50;;;18.20;45.80;;;;;;4525781;31;20116;-68
2022/04/11 05:45:48;;;;;;;0.55;0.47;;;18.20;45.80;;;;;;4508187;31;20066;-68
2022/04/11 05:48:14;;;;;;;1.00;0.60;;;18.20;45.80;;;;;;4524338;31;20629;-68
2022/04/11 05:50:40;;;;;;;1.35;0.63;;;18.20;45.80;;;;;;4508761;31;20080;-68
2022/04/11 05:53:06;;;;;;;1.85;0.60;;;18.20;45.80;;;;;;4523159;31;20226;-68
2022/04/11 05:55:32;;;;;;;1.33;0.75;;;18.20;45.80;;;;;;4522947;31;20060;-68
2022/04/11 05:57:58;;;;;;;2.60;0.57;;;18.10;45.80;;;;;;4522821;31;20203;-68
2022/04/11 06:00:24;;;;;;;0.82;0.38;;;18.20;45.80;;;;;;4522991;31;20155;-70
2022/04/11 06:02:50;;;;;;;0.73;0.50;;;18.10;45.80;;;;;;4508850;31;20091;-68
2022/04/11 06:05:16;;;;;;;0.60;0.40;;;18.10;45.80;;;;;;4524142;31;20087;-68
2022/04/11 06:07:43;;;;;;;1.10;0.50;;;18.10;45.90;;;;;;4523268;31;20064;-68
2022/04/11 06:10:10;;;;;;;1.05;0.60;;;18.10;45.90;;;;;;4524086;31;20072;-68
2022/04/11 06:12:37;;;;;;;1.45;0.57;;;18.10;45.90;;;;;;4523909;31;20099;-68
2022/04/11 06:15:03;;;;;;;1.02;0.50;;;18.10;45.90;;;;;;4509078;31;20087;-68
2022/04/11 06:17:30;;;;;;;1.02;0.43;;;18.10;45.90;;;;;;4524272;31;20181;-68
2022/04/11 06:19:58;;;;;;;1.00;0.65;;;18.10;45.90;;;;;;4523501;31;20080;-68
2022/04/11 06:22:24;;;;;;;0.40;0.40;;;18.10;45.90;;;;;;4523817;31;20076;-68
2022/04/11 06:24:58;;;;;;;0.95;0.60;;;18.00;45.90;;;;;;4523660;31;20096;-68
2022/04/11 06:27:23;;;;;;;1.27;0.70;;;18.00;45.90;;;;;;4524045;31;20091;-68
2022/04/11 06:29:56;;;;;;;1.10;0.50;;;18.00;45.90;;;;;;4523500;31;20072;-68
2022/04/11 06:32:29;;;;;;;0.85;0.50;;;18.00;45.90;;;;;;4508812;31;20069;-68
2022/04/11 06:34:56;;;;;;;1.17;0.57;;;18.00;45.90;;;;;;4509026;31;20080;-69
2022/04/11 06:37:23;;;;;;;1.23;0.50;;;18.00;45.90;;;;;;4523500;31;20084;-68
2022/04/11 06:39:50;;;;;;;1.63;0.50;;;18.00;46.00;;;;;;4508731;31;20072;-68
2022/04/11 06:42:16;;;;;;;0.90;0.50;;;18.00;46.00;;;;;;4523001;31;20509;-68
2022/04/11 06:44:42;;;;;;;1.35;0.63;;;18.00;46.00;;;;;;4537590;31;20084;-67
2022/04/11 06:47:08;;;;;;;1.10;0.68;;;18.00;46.10;;;;;;4523741;31;20493;-68
2022/04/11 06:49:35;;;;;;;0.85;0.47;;;18.00;46.00;;;;;;4538631;31;20251;-68
2022/04/11 06:52:01;;;;;;;1.00;0.80;;;18.00;47.00;;;;;;4538708;31;20287;-67
2022/04/11 06:54:27;;;;;;;1.77;0.73;;;18.00;46.10;;;;;;4538991;31;20087;-68
2022/04/11 06:56:53;;;;;;;4.30;0.70;;;17.90;46.00;;;;;;4541079;31;20079;-68
2022/04/11 06:59:19;;;;;;;2.45;0.82;;;17.90;45.90;;;;;;4542348;31;20078;-68
2022/04/11 07:01:45;;;;;;;1.98;1.02;;;17.90;45.40;;;;;;4542133;31;20064;-67
2022/04/11 07:04:11;;;;;;;3.13;0.88;;;17.90;45.10;;;;;;4542351;31;20172;-67
2022/04/11 07:06:37;;;;;;;2.15;0.90;;;17.90;44.90;;;;;;4542871;31;20090;-68
2022/04/11 07:09:03;;;;;;;2.83;0.80;;;17.90;45.20;;;;;;4543087;31;20095;-68
2022/04/11 07:11:31;;;;;;;3.00;0.93;;;17.80;45.50;;;;;;4542113;31;20108;-68
2022/04/11 07:13:57;;;;;;;2.75;0.90;;;17.80;45.60;;;;;;4542019;31;20083;-68
2022/04/11 07:16:24;;;;;;;2.03;0.70;;;17.80;45.70;;;;;;4542304;31;20120;-68
2022/04/11 07:18:51;;;;;;;2.08;1.05;;;17.80;45.80;;;;;;4541973;31;20076;-68
2022/04/11 07:21:18;;;;;;;2.08;0.65;;;17.80;45.80;;;;;;4541856;31;20544;-67
2022/04/11 07:23:44;;;;;;;1.95;0.80;;;17.80;45.80;;;;;;4541334;31;20095;-67
2022/04/11 07:26:10;;;;;;;2.50;0.70;;;17.80;45.90;;;;;;4541635;31;20487;-67
2022/04/11 07:28:36;;;;;;;3.30;0.60;;;17.80;45.90;;;;;;4541774;31;20068;-67
2022/04/11 07:31:02;;;;;;;1.05;0.65;;;17.80;46.10;;;;;;4541860;31;20128;-68
2022/04/11 07:33:28;;;;;;;0.88;0.50;;;17.80;46.10;;;;;;4542608;31;20103;-67
2022/04/11 07:35:53;;;;;;;1.45;0.50;;;17.90;46.10;;;;;;4542220;31;20075;-68
2022/04/11 07:38:19;;;;;;;1.90;0.60;;;17.90;46.10;;;;;;4536432;31;20285;-67
2022/04/11 07:40:46;;;;;;;3.67;0.90;;;18.00;46.10;;;;;;4524893;31;20081;-68
2022/04/11 07:43:12;;;;;;;1.60;0.60;;;18.10;46.00;;;;;;4532635;31;20157;-67
2022/04/11 07:45:38;;;;;;;2.33;0.60;;;18.10;45.80;;;;;;4537895;31;20080;-67
2022/04/11 07:48:04;;;;;;;1.48;0.57;;;18.30;45.60;;;;;;4541801;31;20152;-68
2022/04/11 07:50:30;;;;;;;1.30;0.73;;;18.40;45.30;;;;;;4526244;31;20092;-68
2022/04/11 07:52:55;;;;;;;0.82;0.50;;;18.60;45.10;;;;;;4529777;31;20656;-68
2022/04/11 07:55:23;;;;;;;1.00;0.70;;;18.70;44.90;;;;;;4538063;31;20079;-68
2022/04/11 07:57:49;;;;;;;1.23;0.57;;;18.80;44.60;;;;;;4540683;31;20229;-68
2022/04/11 08:00:16;;;;;;;2.80;0.63;;;19.00;44.50;;;;;;4541000;31;20072;-68
2022/04/11 08:02:41;;;;;;;1.52;0.50;;;19.10;44.20;;;;;;4538431;31;20075;-68
2022/04/11 08:05:08;;;;;;;1.38;0.60;;;19.30;43.90;;;;;;4521886;31;20060;-68
2022/04/11 08:07:34;;;;;;;2.97;0.90;;;19.40;43.70;;;;;;4540233;31;20118;-68
2022/04/11 08:10:04;;;;;;;1.50;0.40;;;19.50;43.50;;;;;;4539511;31;20159;-69
2022/04/11 08:12:30;;;;;;;2.45;0.60;;;19.60;43.30;;;;;;4541082;31;20075;-68
2022/04/11 08:14:57;;;;;;;1.27;0.60;;;19.80;43.10;;;;;;4541316;31;20276;-67
2022/04/11 08:17:23;;;;;;;1.63;0.70;;;19.90;42.90;;;;;;4540930;31;20409;-68
2022/04/11 08:19:50;;;;;;;2.03;0.60;;;20.00;42.70;;;;;;4540438;31;20229;-67
2022/04/11 08:22:16;;;;;;;1.17;0.60;;;20.10;42.60;;;;;;4540885;31;20086;-68
2022/04/11 08:24:41;;;;;;;1.88;0.63;;;20.30;42.40;;;;;;4541622;31;20071;-67
2022/04/11 08:27:07;;;;;;;3.40;0.70;;;20.40;42.00;;;;;;4541751;31;20315;-67
2022/04/11 08:29:33;;;;;;;3.45;1.02;;;20.40;41.60;;;;;;4541205;31;20106;-67
2022/04/11 08:31:59;;;;;;;2.00;0.80;;;20.50;41.40;;;;;;4541703;31;20076;-67
2022/04/11 08:34:25;;;;;;;2.55;0.60;;;20.50;41.10;;;;;;4541448;31;20151;-68
2022/04/11 08:36:51;;;;;;;1.48;0.85;;;20.50;41.00;;;;;;4540901;31;20567;-67
2022/04/11 08:39:17;;;;;;;4.43;0.90;;;20.50;41.00;;;;;;4541051;31;20060;-67
2022/04/11 08:41:43;;;;;;;3.78;0.90;;;20.40;41.00;;;;;;4541396;31;20678;-68
2022/04/11 08:44:11;;;;;;;5.82;0.93;;;20.40;41.40;;;;;;4541326;31;20091;-67
2022/04/11 08:46:37;;;;;;;7.07;0.93;;;20.30;41.60;;;;;;4541048;31;20084;-67
2022/04/11 08:49:06;;;;;;;2.92;0.63;;;20.20;41.80;;;;;;4526480;31;20094;-68
2022/04/11 08:51:34;;;;;;;1.83;0.88;;;20.10;41.90;;;;;;4541128;31;20076;-67
2022/04/11 08:54:01;;;;;;;2.33;0.80;;;20.10;41.80;;;;;;4541139;31;20155;-68
2022/04/11 08:56:28;;;;;;;2.00;0.80;;;20.00;41.80;;;;;;4541170;31;20080;-68
2022/04/11 08:58:54;;;;;;;1.70;0.73;;;20.00;41.90;;;;;;4540824;31;20084;-67
2022/04/11 09:01:21;;;;;;;2.35;0.47;;;19.90;42.90;;;;;;4540673;31;20076;-67
2022/04/11 09:03:48;;;;;;;2.03;0.60;;;19.90;42.00;;;;;;4540194;31;20520;-68
2022/04/11 09:06:15;;;;;;;2.92;0.70;;;19.80;42.10;;;;;;4534508;31;20068;-68
2022/04/11 09:08:51;;;;;;;2.67;0.70;;;19.70;42.00;;;;;;4524868;31;20609;-68
2022/04/11 09:11:30;;;;;;;2.33;0.55;;;19.70;41.80;;;;;;4540180;31;20107;-67
2022/04/11 09:13:57;;;;;;;3.20;0.80;;;19.60;41.50;;;;;;4540002;31;20145;-67
2022/04/11 09:16:23;;;;;;;1.10;0.60;;;19.60;41.50;;;;;;4539939;31;20068;-68
2022/04/11 09:18:52;;;;;;;2.45;0.63;;;19.60;41.40;;;;;;4539228;31;20102;-68
2022/04/11 09:21:20;;;;;;;4.28;0.60;;;19.50;41.20;;;;;;4540907;31;20103;-68
2022/04/11 09:23:47;;;;;;;3.47;0.73;;;19.50;41.10;;;;;;4540656;31;20417;-68
2022/04/11 09:26:19;;;;;;;2.50;0.75;;;19.50;40.80;;;;;;4540672;31;20076;-68
2022/04/11 09:29:04;;;;;;;3.97;0.68;;;19.50;40.50;;;;;;4540295;31;20067;-68
2022/04/11 09:31:33;;;;;;;2.63;0.80;;;19.50;40.10;;;;;;4540075;31;20064;-68
2022/04/11 09:34:12;;;;;;;3.08;0.55;;;19.50;40.20;;;;;;4525972;31;20087;-68
2022/04/11 09:36:46;;;;;;;1.83;0.60;;;19.50;40.50;;;;;;4525909;31;20097;-68
2022/04/11 09:39:11;;;;;;;2.25;0.60;;;19.50;40.70;;;;;;4540486;31;20068;-68
2022/04/11 09:41:45;;;;;;;2.95;0.60;;;19.40;40.70;;;;;;4540390;31;20517;-67
2022/04/11 09:44:28;;;;;;;1.58;0.63;;;19.40;40.80;;;;;;4540167;31;20168;-68
2022/04/11 09:46:59;;;;;;;3.00;0.63;;;19.40;40.70;;;;;;4540234;31;20060;-67
2022/04/11 09:49:25;;;;;;;3.65;0.73;;;19.40;40.80;;;;;;4530848;31;20133;-67
2022/04/11 09:52:08;;;;;;;2.15;0.57;;;19.30;40.60;;;;;;4524163;31;20077;-67
2022/04/11 09:54:37;;;;;;;1.77;0.60;;;19.30;40.40;;;;;;4523853;31;20471;-67
2022/04/11 09:57:04;;;;;;;2.75;0.85;;;19.30;40.40;;;;;;4538267;31;20173;-68
2022/04/11 09:59:31;;;;;;;1.75;0.52;;;19.30;40.40;;;;;;4541128;31;20522;-68
2022/04/11 10:01:57;;;;;;;2.03;0.75;;;19.20;40.20;;;;;;4537826;31;20076;-68
2022/04/11 10:04:24;;;;;;;1.35;0.50;;;19.30;40.20;;;;;;4539348;31;20087;-68
2022/04/11 10:06:53;;;;;;;1.77;0.60;;;19.20;40.00;;;;;;4536323;31;20181;-67
2022/04/11 10:09:21;;;;;;;4.90;0.98;;;19.20;39.90;;;;;;4523541;31;20104;-68
2022/04/11 10:11:48;;;;;;;2.80;0.65;;;19.20;39.80;;;;;;4523391;31;20495;-66
2022/04/11 10:14:23;;;;;;;4.63;0.68;;;19.20;39.80;;;;;;4536916;31;20064;-67
2022/04/11 10:16:55;;;;;;;1.83;0.63;;;19.10;39.80;;;;;;4539486;31;20072;-67
2022/04/11 10:19:29;;;;;;;5.85;0.63;;;19.20;39.70;;;;;;4539579;31;20129;-66
2022/04/11 10:22:14;;;;;;;2.55;0.73;;;19.10;39.50;;;;;;4540382;31;20554;-67
2022/04/11 10:24:55;;;;;;;3.65;0.65;;;19.10;39.50;;;;;;4540186;31;20072;-68
2022/04/11 10:27:25;;;;;;;4.00;0.63;;;19.10;40.40;;;;;;4539950;31;20080;-67
2022/04/11 10:29:53;;;;;;;3.75;0.55;;;19.10;39.60;;;;;;4539706;31;20489;-67
2022/04/11 10:32:20;;;;;;;2.22;0.65;;;19.00;39.40;;;;;;4524880;31;20092;-68
2022/04/11 10:35:02;;;;;;;2.20;0.65;;;19.00;39.40;;;;;;4524740;31;20139;-68
2022/04/11 10:37:48;;;;;;;3.75;0.70;;;19.00;39.30;;;;;;4538885;31;20166;-68
2022/04/11 10:40:17;;;;;;;4.38;1.05;;;19.00;39.40;;;;;;4536718;31;20415;-68
2022/04/11 10:43:05;;;;;;;2.38;0.70;;;19.00;39.30;;;;;;4539918;31;20216;-67
2022/04/11 10:45:40;;;;;;;4.38;0.90;;;19.00;39.20;;;;;;4539358;31;20068;-67
2022/04/11 10:48:07;;;;;;;2.78;0.70;;;19.00;39.40;;;;;;4539737;31;20127;-67
2022/04/11 10:50:38;;;;;;;3.10;0.65;;;19.00;39.40;;;;;;4539578;31;20080;-67
2022/04/11 10:53:11;;;;;;;1.83;0.52;;;18.90;39.20;;;;;;4539181;31;20139;-67
2022/04/11 10:55:54;;;;;;;3.63;0.70;;;18.90;39.20;;;;;;4539272;31;20095;-67
2022/04/11 10:58:22;;;;;;;2.03;0.68;;;19.00;39.30;;;;;;4536782;31;20098;-67
2022/04/11 11:00:49;;;;;;;3.08;0.60;;;18.90;39.10;;;;;;4535548;31;20422;-67
2022/04/11 11:03:15;;;;;;;2.75;0.70;;;18.90;38.60;;;;;;4523236;31;20080;-68
2022/04/11 11:05:48;;;;;;;1.42;0.50;;;18.80;39.20;;;;;;4509017;31;20069;-67
2022/04/11 11:08:13;;;;;;;4.50;0.93;;;18.80;37.60;;;;;;4523406;31;20060;-67
2022/04/11 11:10:49;;;;;;;2.45;0.82;;;18.80;37.60;;;;;;4523537;31;20091;-67
2022/04/11 11:13:34;;;;;;;2.35;0.80;;;18.80;37.30;;;;;;4523645;31;20217;-67
2022/04/11 11:16:11;;;;;;;2.75;0.77;;;18.80;36.30;;;;;;4533783;31;20074;-68
2022/04/11 11:18:50;;;;;;;4.78;0.70;;;18.80;36.60;;;;;;4539041;31;20081;-67
2022/04/11 11:21:32;;;;;;;3.20;0.85;;;18.80;37.00;;;;;;4539341;31;20199;-67
2022/04/11 11:24:06;;;;;;;3.03;0.70;;;18.80;37.20;;;;;;4525266;31;20413;-67
2022/04/11 11:26:48;;;;;;;;;;;18.80;37.20;;;;;;4539760;31;20148;-67
2022/04/11 11:29:29;;;;;;;2.17;0.55;;;18.70;37.20;;;;;;4539376;31;19968;-67
2022/04/11 11:32:03;;;;;;;3.80;0.98;;;18.70;37.40;;;;;;4529865;31;20100;-67
2022/04/11 11:34:34;;;;;;;6.07;0.73;;;18.70;37.30;;;;;;4537826;31;20072;-67
2022/04/11 11:37:02;;;;;;;3.03;0.68;;;18.70;37.60;;;;;;4524766;31;20088;-67
2022/04/11 11:39:29;;;;;;;2.38;0.60;;;18.70;37.70;;;;;;4522332;31;20084;-67
2022/04/11 11:42:02;;;;;;;3.60;0.85;;;18.70;37.90;;;;;;4521703;31;20169;-68
2022/04/11 11:44:30;;;;;;;1.92;0.65;;;18.70;37.80;;;;;;4534721;31;20249;-68
2022/04/11 11:46:59;;;;;;;3.38;1.02;;;18.70;37.30;;;;;;4532197;31;20127;-68
2022/04/11 11:49:26;;;;;;;2.33;0.57;;;18.70;37.10;;;;;;4531240;31;20284;-68
2022/04/11 11:51:53;;;;;;;2.22;0.77;;;18.80;37.30;;;;;;4532617;31;20100;-68
2022/04/11 11:54:31;;;;;;;3.90;0.50;;;18.80;37.20;;;;;;4532387;31;20157;-67
2022/04/11 11:56:57;;;;;;;2.75;0.80;;;18.80;36.90;;;;;;4529617;31;20289;-67
2022/04/11 11:59:25;;;;;;;1.80;0.68;;;18.70;37.10;;;;;;4525621;31;20501;-68
2022/04/11 12:04:36;;;;;;;3.67;0.77;;;18.80;37.00;;;;;;4525961;31;20164;-68
2022/04/11 12:07:02;;;;;;;4.13;0.90;;;18.80;37.10;;;;;;4524981;31;20425;-67
2022/04/11 12:09:39;;;;;;;3.92;1.13;;;18.80;37.00;;;;;;4525336;31;20056;-67
2022/04/11 12:12:08;;;;;;;1.33;0.60;;;18.80;36.90;;;;;;4525403;31;20936;-69
2022/04/11 12:15:00;;;;;;;4.50;0.90;;;18.80;36.90;;;;;;4530995;31;20119;-68
2022/04/11 12:17:35;;;;;;;2.47;0.90;;;18.80;36.40;;;;;;4529846;31;20577;-68
2022/04/11 12:20:14;;;;;;;1.83;0.73;;;18.80;36.60;;;;;;4525260;31;20115;-68
2022/04/11 12:22:59;;;;;;;3.05;0.77;;;18.80;36.90;;;;;;4539830;31;20060;-66
2022/04/11 12:25:30;;;;;;;2.63;0.80;;;18.80;37.00;;;;;;4527361;31;20189;-66
2022/04/11 12:28:19;;;;;;;4.28;0.90;;;18.80;36.90;;;;;;4541814;31;20090;-66
2022/04/11 12:31:12;;;;;;;3.15;1.02;;;18.80;37.20;;;;;;4541143;31;20108;-65
2022/04/11 12:33:49;;;;;;;3.33;0.93;;;18.80;37.00;;;;;;4541112;31;20092;-66
2022/04/11 12:36:16;;;;;;;2.92;0.90;;;18.80;37.30;;;;;;4541401;31;20222;-66
2022/04/11 12:38:50;;;;;;;2.67;0.68;;;18.80;37.10;;;;;;4541382;31;20497;-66
2022/04/11 12:41:31;;;;;;;1.10;0.60;;;18.80;37.20;;;;;;4541594;31;20166;-66
2022/04/11 12:44:09;;;;;;;5.53;1.00;;;18.80;37.20;;;;;;4541137;31;20092;-66
2022/04/11 12:46:40;;;;;;;2.53;0.90;;;18.80;37.30;;;;;;4541733;31;20130;-71
2022/04/11 12:49:07;;;;;;;3.95;1.00;;;18.80;37.30;;;;;;4541052;31;20080;-68
2022/04/11 12:51:34;;;;;;;2.13;0.80;;;18.80;37.30;;;;;;4541432;31;20100;-67
2022/04/11 12:54:04;;;;;;;3.20;0.77;;;18.80;37.30;;;;;;4541174;31;20217;-66
2022/04/11 12:56:51;;;;;;;3.60;0.90;;;18.80;37.40;;;;;;4538773;31;20135;-67